Time;durP1;ratioP1;P1;durP2;ratioP2;P2;SDS_P1;SDS_P2;PMS_P1;PMS_P2;Temp;Humidity;BMP_temperature;BMP_pressure;BME280_temperature;BME280_humidity;BME280_pressure;Samples;Min_cycle;Max_cycle;Signal;HPM_P1;HPM_P2
2021/11/25 00:01:32;;;;;;;107.28;67.18;;;5.70;99.90;;;;;;5055183;28;20028;-48
2021/11/25 00:03:58;;;;;;;96.30;63.28;;;5.50;99.90;;;;;;5051943;28;20036;-48
2021/11/25 00:06:23;;;;;;;102.60;65.88;;;5.00;99.90;;;;;;5051777;28;20040;-50
2021/11/25 00:08:49;;;;;;;94.85;62.20;;;4.90;99.90;;;;;;5051959;28;20033;-49
2021/11/25 00:11:15;;;;;;;115.90;72.65;;;5.20;99.90;;;;;;5054300;28;20377;-49
2021/11/25 00:13:40;;;;;;;147.07;81.68;;;5.40;99.90;;;;;;5053548;28;20045;-48
2021/11/25 00:16:06;;;;;;;155.70;86.38;;;5.50;99.90;;;;;;5070494;28;20048;-49
2021/11/25 00:18:32;;;;;;;114.68;71.85;;;5.60;99.90;;;;;;5053770;28;20050;-50
2021/11/25 00:20:58;;;;;;;96.30;61.60;;;5.60;99.90;;;;;;5070062;28;20037;-48
2021/11/25 00:23:24;;;;;;;90.07;59.50;;;5.60;99.90;;;;;;5055689;28;20035;-49
2021/11/25 00:25:50;;;;;;;89.40;58.17;;;5.60;99.90;;;;;;5055579;28;20029;-49
2021/11/25 00:28:16;;;;;;;103.78;62.85;;;5.70;99.90;;;;;;5053494;28;20036;-49
2021/11/25 00:30:41;;;;;;;126.03;70.78;;;5.70;99.90;;;;;;5055480;28;20033;-49
2021/11/25 00:33:07;;;;;;;147.55;80.07;;;5.60;99.90;;;;;;5055504;28;20052;-48
2021/11/25 00:35:33;;;;;;;124.90;73.40;;;5.60;99.90;;;;;;5055929;28;20029;-50
2021/11/25 00:37:59;;;;;;;104.20;64.45;;;5.50;99.90;;;;;;5054342;28;20067;-49
2021/11/25 00:40:24;;;;;;;88.93;57.00;;;5.40;99.90;;;;;;5055345;28;20086;-49
2021/11/25 00:42:50;;;;;;;88.28;56.60;;;5.50;99.90;;;;;;5055115;28;20489;-48
2021/11/25 00:45:17;;;;;;;80.20;54.38;;;5.40;99.90;;;;;;5055939;28;20103;-49
2021/11/25 00:47:46;;;;;;;83.53;57.83;;;5.50;99.90;;;;;;5072943;28;20492;-49
2021/11/25 00:50:15;;;;;;;83.22;55.00;;;5.50;99.90;;;;;;5072866;28;20146;-49
2021/11/25 00:52:42;;;;;;;74.15;51.10;;;5.50;99.90;;;;;;5072802;28;20069;-49
2021/11/25 00:55:08;;;;;;;73.78;50.15;;;5.50;99.90;;;;;;5072653;28;20044;-50
2021/11/25 00:57:34;;;;;;;70.10;46.10;;;5.40;99.90;;;;;;5056044;28;20590;-48
2021/11/25 01:00:00;;;;;;;63.80;43.95;;;5.40;99.90;;;;;;5072599;28;20044;-50
2021/11/25 01:02:25;;;;;;;67.95;46.40;;;5.40;99.90;;;;;;5072677;28;20032;-49
2021/11/25 01:04:51;;;;;;;61.55;42.95;;;5.40;99.90;;;;;;5072663;28;20040;-49
2021/11/25 01:07:17;;;;;;;59.72;40.67;;;5.40;99.90;;;;;;5072548;28;20032;-49
2021/11/25 01:09:43;;;;;;;56.92;39.83;;;5.30;99.90;;;;;;5072174;28;20464;-49
2021/11/25 01:12:11;;;;;;;60.95;39.78;;;5.30;99.90;;;;;;5072215;28;20048;-48
2021/11/25 01:14:38;;;;;;;66.10;43.90;;;5.20;99.90;;;;;;5072373;28;20091;-49
2021/11/25 01:17:04;;;;;;;63.83;42.78;;;5.10;99.90;;;;;;5057517;28;20041;-48
2021/11/25 01:19:30;;;;;;;57.53;39.75;;;5.20;99.90;;;;;;5054572;28;20563;-48
2021/11/25 01:21:56;;;;;;;57.53;38.92;;;5.20;99.90;;;;;;5053443;28;20108;-49
2021/11/25 01:24:21;;;;;;;60.58;43.15;;;5.30;99.90;;;;;;5052369;28;20388;-48
2021/11/25 01:26:47;;;;;;;63.85;41.50;;;5.20;99.90;;;;;;5052314;28;20127;-49
2021/11/25 01:29:14;;;;;;;62.25;39.80;;;5.20;99.90;;;;;;5054423;28;20122;-49
2021/11/25 01:31:41;;;;;;;58.70;39.83;;;5.10;99.90;;;;;;5054488;28;20025;-49
2021/11/25 01:34:06;;;;;;;58.95;40.22;;;5.10;99.90;;;;;;5054502;28;20039;-49
2021/11/25 01:36:33;;;;;;;58.40;37.92;;;5.10;99.90;;;;;;5054360;28;20033;-49
2021/11/25 01:38:58;;;;;;;58.08;39.47;;;5.20;99.90;;;;;;5068914;28;20403;-49
2021/11/25 01:41:24;;;;;;;56.63;38.50;;;5.30;99.90;;;;;;5068670;28;20045;-49
2021/11/25 01:43:50;;;;;;;61.47;38.83;;;5.30;99.90;;;;;;5051714;28;20041;-49
2021/11/25 01:46:18;;;;;;;55.53;36.10;;;5.30;99.90;;;;;;5068082;28;20041;-48
2021/11/25 01:48:48;;;;;;;57.40;39.45;;;5.20;99.90;;;;;;5051833;28;20083;-48
2021/11/25 01:51:16;;;;;;;56.40;38.08;;;5.20;99.90;;;;;;5034825;28;20041;-49
2021/11/25 01:53:42;;;;;;;65.00;43.20;;;5.30;99.90;;;;;;5051705;28;20044;-49
2021/11/25 01:56:09;;;;;;;52.28;37.03;;;5.20;99.90;;;;;;5051505;28;20025;-49
2021/11/25 01:58:36;;;;;;;59.50;37.83;;;5.30;99.90;;;;;;5051675;28;20589;-49
2021/11/25 02:01:06;;;;;;;57.22;37.88;;;5.20;99.90;;;;;;5051461;28;20027;-49
2021/11/25 02:03:32;;;;;;;59.88;39.72;;;5.30;99.90;;;;;;5051398;28;20041;-48
2021/11/25 02:05:58;;;;;;;58.42;37.42;;;5.30;99.90;;;;;;5051394;28;20037;-49
2021/11/25 02:08:24;;;;;;;53.38;37.53;;;5.20;99.90;;;;;;5067806;28;20151;-49
2021/11/25 02:10:51;;;;;;;57.85;39.45;;;5.20;99.90;;;;;;5051421;28;20029;-49
2021/11/25 02:13:19;;;;;;;54.42;37.53;;;5.20;99.90;;;;;;5051102;28;20568;-49
2021/11/25 02:15:46;;;;;;;87.28;43.17;;;5.20;99.90;;;;;;5034945;28;20041;-49
2021/11/25 02:18:15;;;;;;;159.13;46.50;;;5.00;99.90;;;;;;5053516;28;20024;-49
2021/11/25 02:20:43;;;;;;;122.82;43.95;;;5.10;99.90;;;;;;5053412;28;20480;-49
2021/11/25 02:23:11;;;;;;;126.63;44.05;;;5.10;99.90;;;;;;5053481;28;20029;-49
2021/11/25 02:25:38;;;;;;;167.10;49.30;;;5.20;99.90;;;;;;5053307;28;20036;-48
2021/11/25 02:28:04;;;;;;;171.52;47.75;;;5.10;99.90;;;;;;5053743;28;20027;-49
2021/11/25 02:30:30;;;;;;;350.42;58.42;;;5.10;99.90;;;;;;5067783;28;20071;-48
2021/11/25 02:32:56;;;;;;;436.45;64.82;;;5.10;99.90;;;;;;5052843;28;20029;-48
2021/11/25 02:35:31;;;;;;;356.92;61.13;;;5.10;99.90;;;;;;5053276;28;20036;-49
2021/11/25 02:37:57;;;;;;;313.17;61.53;;;5.10;99.90;;;;;;5050792;28;20095;-49
2021/11/25 02:40:35;;;;;;;389.92;69.78;;;5.10;99.90;;;;;;5050760;28;20116;-48
2021/11/25 02:43:08;;;;;;;387.55;70.80;;;5.10;99.90;;;;;;5050597;28;20041;-50
2021/11/25 02:45:54;;;;;;;254.15;63.83;;;5.00;99.90;;;;;;5050570;28;20175;-48
2021/11/25 02:48:28;;;;;;;244.73;62.97;;;5.00;99.90;;;;;;5053708;28;20036;-49
2021/11/25 02:50:55;;;;;;;387.30;72.80;;;4.90;99.90;;;;;;5070572;28;20122;-48
2021/11/25 02:53:24;;;;;;;447.13;74.40;;;4.90;99.90;;;;;;5070454;28;20041;-48
2021/11/25 02:55:54;;;;;;;428.60;76.03;;;5.00;99.90;;;;;;5070309;28;20499;-49
2021/11/25 02:58:20;;;;;;;282.05;65.35;;;4.90;99.90;;;;;;5070408;28;20040;-48
2021/11/25 03:00:47;;;;;;;440.88;73.60;;;5.00;99.90;;;;;;5070516;28;20031;-49
2021/11/25 03:03:15;;;;;;;377.98;71.45;;;5.00;99.90;;;;;;5028805;28;20040;-49
2021/11/25 03:05:43;;;;;;;311.90;65.78;;;5.00;99.90;;;;;;4993936;28;20041;-48
2021/11/25 03:08:10;;;;;;;270.17;62.10;;;5.10;99.90;;;;;;5010643;28;20041;-49
2021/11/25 03:10:45;;;;;;;225.35;64.80;;;5.00;99.90;;;;;;5010534;28;20092;-49
2021/11/25 03:13:13;;;;;;;220.32;63.10;;;4.90;99.90;;;;;;5010279;28;20049;-49
2021/11/25 03:15:39;;;;;;;150.88;60.30;;;4.40;99.90;;;;;;5010479;28;20076;-49
2021/11/25 03:18:07;;;;;;;173.82;61.92;;;4.30;99.90;;;;;;5010480;28;20041;-49
2021/11/25 03:20:36;;;;;;;232.63;64.65;;;4.40;99.90;;;;;;5010550;28;20045;-49
2021/11/25 03:23:02;;;;;;;237.85;62.92;;;4.40;99.90;;;;;;5010406;28;20038;-49
2021/11/25 03:25:28;;;;;;;233.55;61.95;;;3.40;99.90;;;;;;5010140;28;20045;-50
2021/11/25 03:27:54;;;;;;;248.57;71.72;;;2.70;99.90;;;;;;5010515;28;20030;-49
2021/11/25 03:30:20;;;;;;;157.75;61.42;;;2.90;99.90;;;;;;5010414;28;20030;-49
2021/11/25 03:32:46;;;;;;;145.20;62.90;;;2.80;99.90;;;;;;5010368;28;20030;-49
2021/11/25 03:35:12;;;;;;;126.82;59.22;;;2.70;99.90;;;;;;5046289;28;20033;-50
2021/11/25 03:37:38;;;;;;;103.18;53.53;;;2.90;99.90;;;;;;5051751;28;20033;-49
2021/11/25 03:40:07;;;;;;;90.65;46.35;;;3.00;99.90;;;;;;5066921;28;20069;-49
2021/11/25 03:42:33;;;;;;;74.57;44.60;;;3.30;99.90;;;;;;5066545;28;20029;-48
2021/11/25 03:44:59;;;;;;;59.72;37.55;;;3.60;99.90;;;;;;5052479;28;20025;-49
2021/11/25 03:47:24;;;;;;;58.00;37.33;;;3.80;99.90;;;;;;5054115;28;20501;-48
2021/11/25 03:49:50;;;;;;;54.58;35.10;;;3.10;99.90;;;;;;5056639;28;20112;-49
2021/11/25 03:52:16;;;;;;;56.65;37.47;;;3.00;99.90;;;;;;5056532;28;20385;-49
2021/11/25 03:54:42;;;;;;;55.13;34.72;;;2.90;99.90;;;;;;5056514;28;20376;-49
2021/11/25 03:57:08;;;;;;;56.22;34.75;;;3.10;99.90;;;;;;5036867;28;20127;-49
2021/11/25 03:59:34;;;;;;;53.03;33.17;;;3.30;99.90;;;;;;5036930;28;20036;-49
2021/11/25 04:02:00;;;;;;;53.72;35.90;;;3.00;99.90;;;;;;5053674;28;20037;-49
2021/11/25 04:04:26;;;;;;;55.28;34.92;;;2.60;99.90;;;;;;5020567;28;20392;-49
2021/11/25 04:06:51;;;;;;;58.53;36.78;;;2.50;99.90;;;;;;5053530;28;20049;-48
2021/11/25 04:09:17;;;;;;;58.20;36.78;;;2.30;99.90;;;;;;5053762;28;20025;-48
2021/11/25 04:11:43;;;;;;;54.97;36.72;;;2.40;99.90;;;;;;5053477;28;20562;-48
2021/11/25 04:14:09;;;;;;;57.45;36.50;;;2.60;99.90;;;;;;5053459;28;20053;-49
2021/11/25 04:16:35;;;;;;;55.53;36.30;;;2.40;99.90;;;;;;5053487;28;20163;-49
2021/11/25 04:19:01;;;;;;;57.20;37.08;;;2.50;99.90;;;;;;5053461;28;20555;-48
2021/11/25 04:21:27;;;;;;;58.58;37.42;;;2.80;99.90;;;;;;5053448;28;20037;-49
2021/11/25 04:23:53;;;;;;;57.05;36.10;;;2.90;99.90;;;;;;5020072;28;20451;-49
2021/11/25 04:26:19;;;;;;;60.03;36.95;;;3.00;99.90;;;;;;5019909;28;20056;-49
2021/11/25 04:28:45;;;;;;;54.10;34.47;;;3.00;99.90;;;;;;5053407;28;20127;-49
2021/11/25 04:37:00;;;;;;;58.92;37.97;;;3.20;99.90;;;;;;5005032;28;20049;-49
2021/11/25 04:39:26;;;;;;;60.05;37.33;;;3.50;99.90;;;;;;4993802;28;20080;-49
2021/11/25 04:41:53;;;;;;;54.03;36.42;;;3.60;99.90;;;;;;4993671;28;20415;-49
2021/11/25 04:44:19;;;;;;;56.92;37.08;;;3.70;99.90;;;;;;4993797;28;20600;-49
2021/11/25 04:46:45;;;;;;;62.28;41.55;;;3.70;99.90;;;;;;4993586;28;20038;-50
2021/11/25 04:49:11;;;;;;;60.08;39.15;;;3.70;99.90;;;;;;4993686;28;20034;-49
2021/11/25 04:51:37;;;;;;;53.80;35.22;;;3.70;99.90;;;;;;4993659;28;20396;-49
2021/11/25 04:54:03;;;;;;;52.38;35.83;;;3.10;99.90;;;;;;4979603;28;20139;-49
2021/11/25 04:56:29;;;;;;;51.13;33.45;;;3.40;99.90;;;;;;5010906;28;20045;-49
2021/11/25 04:58:55;;;;;;;55.13;33.88;;;3.60;99.90;;;;;;5010891;28;20499;-49
2021/11/25 05:01:20;;;;;;;52.22;34.45;;;3.60;99.90;;;;;;5012907;28;20038;-49
2021/11/25 05:03:46;;;;;;;51.38;33.55;;;3.50;99.90;;;;;;5012892;28;20042;-49
2021/11/25 05:06:12;;;;;;;54.25;35.70;;;3.50;99.90;;;;;;5011380;28;20120;-49
2021/11/25 05:08:38;;;;;;;51.83;35.25;;;3.20;99.90;;;;;;5047857;28;20037;-49
2021/11/25 05:11:04;;;;;;;55.75;37.15;;;2.80;99.90;;;;;;5069402;28;20045;-49
2021/11/25 05:13:30;;;;;;;57.28;37.08;;;2.90;99.90;;;;;;5054716;28;20060;-49
2021/11/25 05:15:56;;;;;;;55.55;36.92;;;3.30;99.90;;;;;;5069312;28;20365;-49
2021/11/25 05:18:21;;;;;;;52.00;34.00;;;2.90;99.90;;;;;;5069178;28;20036;-49
2021/11/25 05:20:47;;;;;;;55.08;34.05;;;3.20;99.90;;;;;;5086650;28;20041;-49
2021/11/25 05:23:14;;;;;;;49.40;32.63;;;3.40;99.90;;;;;;5077730;28;20036;-48
2021/11/25 05:25:40;;;;;;;48.83;31.95;;;3.50;99.90;;;;;;5057224;28;20052;-49
2021/11/25 05:28:06;;;;;;;43.28;30.15;;;3.70;99.90;;;;;;5079292;28;20071;-46
2021/11/25 05:30:32;;;;;;;47.90;31.45;;;3.80;99.90;;;;;;5039136;28;20116;-49
2021/11/25 05:32:59;;;;;;;56.28;36.40;;;3.90;99.90;;;;;;5071988;28;20024;-49
2021/11/25 05:35:26;;;;;;;96.32;51.65;;;4.00;99.90;;;;;;5070172;28;20067;-48
2021/11/25 05:37:51;;;;;;;83.53;46.03;;;4.00;99.90;;;;;;5089165;28;20064;-48
2021/11/25 05:40:17;;;;;;;76.30;43.80;;;4.10;99.90;;;;;;5074232;28;20459;-49
2021/11/25 05:42:43;;;;;;;73.35;43.38;;;3.10;99.90;;;;;;5087995;28;20044;-48
2021/11/25 05:45:12;;;;;;;84.38;45.50;;;4.10;99.90;;;;;;5075026;28;20036;-49
2021/11/25 05:47:39;;;;;;;66.68;42.15;;;4.20;99.90;;;;;;5039829;28;20051;-48
2021/11/25 05:50:08;;;;;;;60.10;36.85;;;4.30;99.90;;;;;;5068340;28;20502;-48
2021/11/25 05:52:34;;;;;;;55.78;34.67;;;4.40;99.90;;;;;;5041126;28;20047;-49
2021/11/25 05:55:00;;;;;;;53.33;34.65;;;4.40;99.90;;;;;;5071773;28;20032;-48
2021/11/25 05:57:26;;;;;;;58.83;34.72;;;4.40;99.90;;;;;;5038422;28;20107;-49
2021/11/25 05:59:52;;;;;;;59.63;34.35;;;4.40;99.90;;;;;;5071571;28;20024;-52
2021/11/25 06:02:20;;;;;;;56.33;37.38;;;4.40;99.90;;;;;;5062755;28;20043;-48
2021/11/25 06:04:46;;;;;;;55.00;37.83;;;4.50;99.90;;;;;;5051446;28;20064;-49
2021/11/25 06:07:12;;;;;;;56.22;37.72;;;4.50;99.90;;;;;;5051294;28;20043;-48
2021/11/25 06:09:39;;;;;;;54.58;40.10;;;4.30;99.90;;;;;;5034262;28;20037;-49
2021/11/25 06:12:06;;;;;;;57.78;41.03;;;4.40;99.90;;;;;;5051436;28;20041;-48
2021/11/25 06:14:35;;;;;;;59.38;41.83;;;4.30;99.90;;;;;;4952958;28;20056;-49
2021/11/25 06:17:02;;;;;;;57.30;39.03;;;4.20;99.90;;;;;;5001665;28;20511;-48
2021/11/25 06:19:29;;;;;;;55.25;39.42;;;4.20;99.90;;;;;;5051161;28;20067;-47
2021/11/25 06:21:55;;;;;;;53.50;39.05;;;4.10;99.90;;;;;;5051168;28;20549;-49
2021/11/25 06:24:21;;;;;;;53.13;39.10;;;4.10;99.90;;;;;;5051031;28;20140;-48
2021/11/25 06:26:49;;;;;;;58.22;40.75;;;4.40;99.90;;;;;;5051094;28;20120;-50
2021/11/25 06:29:18;;;;;;;82.78;57.72;;;5.10;99.90;;;;;;5003445;28;20037;-48
2021/11/25 06:31:44;;;;;;;101.10;72.40;;;6.00;99.90;;;;;;5053452;28;20032;-50
2021/11/25 06:34:11;;;;;;;120.03;77.43;;;6.70;99.90;;;;;;5053661;28;20033;-49
2021/11/25 06:36:38;;;;;;;124.07;80.50;;;7.50;99.90;;;;;;5052998;28;20033;-50
2021/11/25 06:39:05;;;;;;;122.30;75.40;;;8.20;99.90;;;;;;5053220;28;20059;-48
2021/11/25 06:41:31;;;;;;;98.75;62.17;;;8.70;99.90;;;;;;5056885;28;20028;-48
2021/11/25 06:43:57;;;;;;;101.40;68.05;;;9.20;99.90;;;;;;5051036;28;20040;-50
2021/11/25 06:46:23;;;;;;;81.43;59.22;;;9.50;99.90;;;;;;5053039;28;20068;-50
2021/11/25 06:48:49;;;;;;;85.60;58.85;;;10.00;99.90;;;;;;5050973;28;20133;-51
2021/11/25 06:51:15;;;;;;;61.33;50.05;;;10.40;99.90;;;;;;5052963;28;20449;-48
2021/11/25 06:53:41;;;;;;;90.32;72.82;;;10.60;99.90;;;;;;5052809;28;20507;-48
2021/11/25 06:56:06;;;;;;;74.82;60.15;;;10.60;99.90;;;;;;5067594;28;20303;-51
2021/11/25 06:58:32;;;;;;;58.08;43.47;;;10.70;99.90;;;;;;5053033;28;20025;-49
2021/11/25 07:01:02;;;;;;;58.33;51.22;;;10.80;99.90;;;;;;5052818;28;20475;-50
2021/11/25 07:03:28;;;;;;;62.28;43.55;;;11.10;99.90;;;;;;5052602;28;20040;-50
2021/11/25 07:05:54;;;;;;;50.05;41.42;;;11.60;99.90;;;;;;5050526;28;20057;-48
2021/11/25 07:08:20;;;;;;;51.40;40.63;;;12.10;99.80;;;;;;5052594;28;20028;-50
2021/11/25 07:10:46;;;;;;;52.53;42.10;;;12.70;99.40;;;;;;5067287;28;20047;-49
2021/11/25 07:13:12;;;;;;;45.53;36.78;;;13.20;97.20;;;;;;5067181;28;20044;-50
2021/11/25 07:15:38;;;;;;;45.75;36.45;;;13.50;96.40;;;;;;5052542;28;20028;-50
2021/11/25 07:18:03;;;;;;;43.13;34.70;;;14.10;95.70;;;;;;5052479;28;20029;-48
2021/11/25 07:20:29;;;;;;;57.38;43.10;;;14.80;94.60;;;;;;5051531;28;20029;-50
2021/11/25 07:22:55;;;;;;;77.07;55.83;;;14.30;93.30;;;;;;5067122;28;20546;-48
2021/11/25 07:25:22;;;;;;;69.78;45.17;;;13.20;93.30;;;;;;5052683;28;20108;-49
2021/11/25 07:27:48;;;;;;;46.35;37.40;;;13.50;93.60;;;;;;5064570;28;20507;-49
2021/11/25 07:30:15;;;;;;;49.13;38.15;;;13.40;92.60;;;;;;5070384;28;20044;-50
2021/11/25 07:32:42;;;;;;;54.88;41.53;;;12.10;93.00;;;;;;5087028;28;20068;-49
2021/11/25 07:35:09;;;;;;;56.65;45.25;;;10.70;94.80;;;;;;5072310;28;20033;-48
2021/11/25 07:37:35;;;;;;;69.95;43.72;;;11.00;95.20;;;;;;5070147;28;20115;-48
2021/11/25 07:40:01;;;;;;;82.18;43.40;;;10.90;95.10;;;;;;5072358;28;20035;-48
2021/11/25 07:42:27;;;;;;;137.77;47.70;;;10.60;95.40;;;;;;5072264;28;20028;-50
2021/11/25 07:44:52;;;;;;;77.70;52.15;;;10.50;95.40;;;;;;5072175;28;20039;-50
2021/11/25 07:47:22;;;;;;;87.22;48.60;;;10.10;95.70;;;;;;5072467;28;20029;-48
2021/11/25 07:49:48;;;;;;;83.50;49.85;;;9.70;96.40;;;;;;5069367;28;20090;-49
2021/11/25 07:52:14;;;;;;;102.13;60.63;;;8.70;97.90;;;;;;5072210;28;20032;-48
2021/11/25 07:54:40;;;;;;;78.30;54.30;;;9.10;99.40;;;;;;5072358;28;20086;-49
2021/11/25 07:57:07;;;;;;;70.85;51.28;;;9.10;99.50;;;;;;5072269;28;20056;-48
2021/11/25 07:59:33;;;;;;;74.45;48.45;;;8.90;99.90;;;;;;5072219;28;20060;-51
2021/11/25 08:01:59;;;;;;;81.30;47.55;;;8.90;99.90;;;;;;5072140;28;20448;-49
2021/11/25 08:04:25;;;;;;;65.90;41.60;;;8.70;99.90;;;;;;5071560;28;20396;-47
2021/11/25 08:06:51;;;;;;;62.63;40.83;;;8.70;99.90;;;;;;5065612;28;20045;-50
2021/11/25 08:09:17;;;;;;;82.30;59.17;;;8.50;99.90;;;;;;5064943;28;20162;-49
2021/11/25 08:11:43;;;;;;;62.38;46.88;;;8.50;99.90;;;;;;5031222;28;20536;-48
2021/11/25 08:14:10;;;;;;;62.15;45.60;;;8.40;99.90;;;;;;5036283;28;20118;-48
2021/11/25 08:16:35;;;;;;;66.80;49.20;;;8.10;99.90;;;;;;5071906;28;20464;-50
2021/11/25 08:19:01;;;;;;;58.88;42.22;;;7.90;99.90;;;;;;5071843;28;20070;-48
2021/11/25 08:21:27;;;;;;;58.30;43.70;;;7.90;99.90;;;;;;5069817;28;20033;-51
2021/11/25 08:23:53;;;;;;;67.70;47.50;;;7.90;99.90;;;;;;5071856;28;20107;-50
2021/11/25 08:26:18;;;;;;;63.05;43.88;;;7.60;99.90;;;;;;5071738;28;20035;-48
2021/11/25 08:28:44;;;;;;;66.03;46.83;;;6.60;99.90;;;;;;5036336;28;20137;-48
2021/11/25 08:31:10;;;;;;;65.18;44.35;;;6.80;99.90;;;;;;5070352;28;20032;-48
2021/11/25 08:33:37;;;;;;;80.93;51.80;;;6.70;99.90;;;;;;5040087;28;20028;-47
2021/11/25 08:36:03;;;;;;;89.53;58.42;;;7.00;99.90;;;;;;5075406;28;20020;-47
2021/11/25 08:38:30;;;;;;;101.75;67.25;;;7.00;99.90;;;;;;5090329;28;20051;-49
2021/11/25 08:40:56;;;;;;;110.63;72.65;;;7.00;99.90;;;;;;5073333;28;20082;-49
2021/11/25 08:43:23;;;;;;;113.07;76.25;;;7.20;99.90;;;;;;5075394;28;20036;-50
2021/11/25 08:45:49;;;;;;;109.95;76.63;;;7.20;99.90;;;;;;5075437;28;20028;-48
2021/11/25 08:48:15;;;;;;;108.30;73.90;;;7.20;99.90;;;;;;5075254;28;20020;-48
2021/11/25 08:50:41;;;;;;;94.70;64.47;;;7.20;99.90;;;;;;5075237;28;20029;-47
2021/11/25 08:53:07;;;;;;;78.03;55.67;;;7.10;99.90;;;;;;5073153;28;21093;-51
2021/11/25 08:55:35;;;;;;;87.00;58.78;;;7.20;99.90;;;;;;5075260;28;20156;-47
2021/11/25 08:58:02;;;;;;;94.38;63.22;;;7.10;99.90;;;;;;5023225;28;20036;-50
2021/11/25 09:00:28;;;;;;;101.60;70.15;;;6.90;99.90;;;;;;5073676;28;20044;-50
2021/11/25 09:02:54;;;;;;;115.93;79.03;;;7.10;99.90;;;;;;5055789;28;20037;-51
2021/11/25 09:05:22;;;;;;;111.65;76.80;;;7.10;99.90;;;;;;5055173;28;20028;-49
2021/11/25 09:07:48;;;;;;;106.95;70.45;;;7.20;99.90;;;;;;5054908;28;20049;-49
2021/11/25 09:10:14;;;;;;;101.22;68.70;;;7.20;99.90;;;;;;5054610;28;20124;-49
2021/11/25 09:12:40;;;;;;;103.07;69.95;;;7.30;99.90;;;;;;5069020;28;20120;-50
2021/11/25 09:15:06;;;;;;;107.32;71.45;;;7.30;99.90;;;;;;5063152;28;20044;-49
2021/11/25 09:17:32;;;;;;;123.13;81.78;;;7.40;99.90;;;;;;5071898;28;20028;-48
2021/11/25 09:19:58;;;;;;;127.93;86.25;;;7.40;99.90;;;;;;5074503;28;20361;-48
2021/11/25 09:22:24;;;;;;;135.82;87.65;;;7.60;99.90;;;;;;5074107;28;20028;-48
2021/11/25 09:24:51;;;;;;;142.85;92.22;;;7.80;99.90;;;;;;5068870;28;20036;-50
2021/11/25 09:27:17;;;;;;;146.00;98.07;;;8.10;99.90;;;;;;5062177;28;20083;-48
2021/11/25 09:29:42;;;;;;;181.93;113.00;;;8.20;99.90;;;;;;5070228;28;20068;-47
2021/11/25 09:32:08;;;;;;;251.05;139.13;;;8.30;99.90;;;;;;5072237;28;20464;-50
2021/11/25 09:34:34;;;;;;;148.23;100.47;;;8.60;99.90;;;;;;5036440;28;20051;-48
2021/11/25 09:37:00;;;;;;;151.20;101.50;;;8.50;99.90;;;;;;5072004;28;20472;-49
2021/11/25 09:39:26;;;;;;;195.10;126.55;;;8.80;99.90;;;;;;5067021;28;20059;-49
2021/11/25 09:41:54;;;;;;;163.00;116.50;;;8.70;99.90;;;;;;5071349;28;20035;-49
2021/11/25 09:44:20;;;;;;;146.48;99.88;;;8.80;99.90;;;;;;5073480;28;20447;-50
2021/11/25 09:46:49;;;;;;;142.23;98.28;;;8.90;99.90;;;;;;5071306;28;20036;-51
2021/11/25 09:49:15;;;;;;;142.23;99.85;;;8.60;99.90;;;;;;5070916;28;20458;-50
2021/11/25 09:51:41;;;;;;;144.50;101.28;;;8.60;99.90;;;;;;5071154;28;20052;-50
2021/11/25 09:54:08;;;;;;;141.85;101.38;;;8.90;99.90;;;;;;5064622;28;20101;-50
2021/11/25 09:56:34;;;;;;;165.05;117.13;;;9.20;99.90;;;;;;5070632;28;20050;-49
2021/11/25 09:58:59;;;;;;;172.57;122.75;;;9.10;99.90;;;;;;5070674;28;20557;-50
2021/11/25 10:01:26;;;;;;;178.65;124.28;;;9.10;99.90;;;;;;5005162;28;20037;-50
2021/11/25 10:03:54;;;;;;;187.00;131.45;;;9.10;99.90;;;;;;5038133;28;20051;-49
2021/11/25 10:06:22;;;;;;;197.95;131.85;;;8.80;99.90;;;;;;5071378;28;20047;-50
2021/11/25 10:08:49;;;;;;;195.18;139.43;;;9.00;99.90;;;;;;5071417;28;20095;-50
2021/11/25 10:11:44;;;;;;;201.77;137.52;;;8.90;99.90;;;;;;5054606;28;20041;-50
2021/11/25 10:14:12;;;;;;;204.38;142.05;;;9.00;99.90;;;;;;4994837;28;20072;-51
2021/11/25 10:16:45;;;;;;;184.02;128.93;;;9.20;99.90;;;;;;5011591;28;20405;-50
2021/11/25 10:19:18;;;;;;;173.55;122.97;;;9.30;99.90;;;;;;5012704;28;20501;-50
2021/11/25 10:21:52;;;;;;;179.23;127.53;;;9.50;99.90;;;;;;5014776;28;20059;-50
2021/11/25 10:24:45;;;;;;;168.48;116.50;;;9.50;99.90;;;;;;5031176;28;20489;-50
2021/11/25 10:27:25;;;;;;;;;;;9.30;99.90;;;;;;5028820;28;20519;-50
2021/11/25 10:30:10;;;;;;;128.93;94.55;;;9.60;99.90;;;;;;5031260;28;19905;-50
2021/11/25 10:32:36;;;;;;;120.30;86.45;;;9.60;99.90;;;;;;5014609;28;20041;-50
2021/11/25 10:35:28;;;;;;;119.15;86.80;;;9.60;99.90;;;;;;5014445;28;20598;-50
2021/11/25 10:40:27;;;;;;;113.07;78.97;;;9.60;99.90;;;;;;5031086;28;20512;-49
2021/11/25 10:42:53;;;;;;;105.72;78.03;;;9.80;99.90;;;;;;5014361;28;20493;-50
2021/11/25 10:45:20;;;;;;;100.68;74.25;;;9.30;99.90;;;;;;5030683;28;20061;-50
2021/11/25 10:48:04;;;;;;;102.47;73.05;;;9.50;99.90;;;;;;5030860;28;20400;-50
2021/11/25 10:50:33;;;;;;;94.72;67.82;;;9.70;99.90;;;;;;5050702;28;20041;-50
2021/11/25 10:53:05;;;;;;;101.30;71.15;;;9.70;99.90;;;;;;5073111;28;20078;-50
2021/11/25 10:55:31;;;;;;;93.03;66.00;;;10.00;99.90;;;;;;5090581;28;20548;-50
2021/11/25 10:58:02;;;;;;;97.32;68.90;;;9.80;99.90;;;;;;5057058;28;20032;-50
2021/11/25 11:00:29;;;;;;;102.07;72.63;;;9.70;99.90;;;;;;5090657;28;20127;-50
2021/11/25 11:03:27;;;;;;;95.88;68.70;;;9.80;99.90;;;;;;5090717;28;20036;-50
2021/11/25 11:06:01;;;;;;;102.07;73.60;;;10.10;99.90;;;;;;5090582;28;20502;-50
2021/11/25 11:08:29;;;;;;;110.05;76.18;;;10.40;99.90;;;;;;5090708;28;20061;-50
2021/11/25 11:11:00;;;;;;;102.38;71.72;;;10.50;99.90;;;;;;5090591;28;20040;-50
2021/11/25 11:18:57;;;;;;;73.90;54.95;;;10.50;99.90;;;;;;5090623;28;20027;-50
2021/11/25 11:21:41;;;;;;;72.82;55.70;;;10.40;99.90;;;;;;5090369;28;20060;-50
2021/11/25 11:24:22;;;;;;;83.05;58.20;;;10.20;99.90;;;;;;5090498;28;20031;-50
2021/11/25 11:26:52;;;;;;;87.78;62.63;;;10.30;99.90;;;;;;5053634;28;20047;-50
2021/11/25 11:29:22;;;;;;;77.65;56.35;;;10.30;99.90;;;;;;5072604;28;20476;-50
2021/11/25 11:31:49;;;;;;;70.22;49.88;;;10.20;99.90;;;;;;5071391;28;20021;-50
2021/11/25 11:34:17;;;;;;;65.72;47.72;;;10.30;99.90;;;;;;5072426;28;20028;-50
2021/11/25 11:36:46;;;;;;;76.43;54.30;;;10.40;99.90;;;;;;5072488;28;20384;-50
2021/11/25 11:39:15;;;;;;;78.20;59.50;;;10.30;99.90;;;;;;5069872;28;20131;-50
2021/11/25 11:41:43;;;;;;;74.82;54.72;;;10.50;99.90;;;;;;5070210;28;20068;-50
2021/11/25 11:44:09;;;;;;;80.47;55.00;;;10.90;99.90;;;;;;5072461;28;20476;-50
2021/11/25 11:46:36;;;;;;;71.00;54.70;;;11.10;99.90;;;;;;5087004;28;20490;-50
2021/11/25 11:49:04;;;;;;;65.72;50.70;;;11.50;99.90;;;;;;5070247;28;20040;-50
2021/11/25 11:51:32;;;;;;;74.93;52.08;;;11.80;99.90;;;;;;5067522;28;20547;-50
2021/11/25 11:53:59;;;;;;;79.70;59.33;;;12.70;99.90;;;;;;5072177;28;20033;-50
2021/11/25 11:56:35;;;;;;;66.47;51.03;;;13.30;99.90;;;;;;5072203;28;20036;-50
2021/11/25 11:59:01;;;;;;;69.93;48.80;;;13.60;99.90;;;;;;5072287;28;20476;-50
2021/11/25 12:01:31;;;;;;;73.70;49.92;;;13.60;99.90;;;;;;5086917;28;20041;-50
2021/11/25 12:03:58;;;;;;;77.90;50.90;;;14.30;99.90;;;;;;5072008;28;20093;-50
2021/11/25 12:06:46;;;;;;;68.95;49.30;;;14.90;99.90;;;;;;5072980;28;20111;-50
2021/11/25 12:09:14;;;;;;;60.80;44.47;;;15.00;99.90;;;;;;5076021;28;20488;-50
2021/11/25 12:11:40;;;;;;;58.42;43.75;;;14.60;99.90;;;;;;5075878;28;20541;-50
2021/11/25 12:14:27;;;;;;;60.20;43.90;;;14.30;99.90;;;;;;5090712;28;20048;-50
2021/11/25 12:17:04;;;;;;;62.35;46.08;;;14.60;99.90;;;;;;5075339;28;20476;-50
2021/11/25 12:19:38;;;;;;;60.03;44.35;;;15.40;99.90;;;;;;5075774;28;20055;-50
2021/11/25 12:22:17;;;;;;;61.22;44.50;;;15.30;99.90;;;;;;5075664;28;20330;-50
2021/11/25 12:24:59;;;;;;;63.17;47.85;;;15.40;99.90;;;;;;5073529;28;20039;-50
2021/11/25 12:27:35;;;;;;;58.53;45.72;;;15.60;99.90;;;;;;5075730;28;20094;-50
2021/11/25 12:30:03;;;;;;;61.60;44.03;;;15.40;99.90;;;;;;5075613;28;20037;-50
2021/11/25 12:32:44;;;;;;;54.30;42.72;;;15.90;99.90;;;;;;5075491;28;20442;-50
2021/11/25 12:35:15;;;;;;;55.22;42.35;;;15.90;99.90;;;;;;5075845;28;20043;-50
2021/11/25 12:37:50;;;;;;;55.92;42.53;;;15.70;99.90;;;;;;5075763;28;20379;-50
2021/11/25 12:40:35;;;;;;;61.15;43.47;;;15.50;99.90;;;;;;5075584;28;20107;-50
2021/11/25 12:43:04;;;;;;;71.00;49.38;;;15.00;99.90;;;;;;5075407;28;20028;-50
2021/11/25 12:45:37;;;;;;;64.25;49.78;;;14.70;99.90;;;;;;5075315;28;20430;-50
2021/11/25 12:48:11;;;;;;;63.40;47.45;;;14.00;99.90;;;;;;5075364;28;20406;-50